sensor_id;sensor_type;location;lat;lon;timestamp;pressure;altitude;pressure_sealevel;temperature;humidity
59877;BME280;45749;51.140;17.184;2023-02-28T00:00:43;101506.91;;;0.03;86.18
59877;BME280;45749;51.140;17.184;2023-02-28T00:03:09;101523.34;;;0.03;86.31
59877;BME280;45749;51.140;17.184;2023-02-28T00:05:34;101513.00;;;0.02;85.96
59877;BME280;45749;51.140;17.184;2023-02-28T00:08:00;101511.28;;;0.01;86.36
59877;BME280;45749;51.140;17.184;2023-02-28T00:10:28;101513.00;;;0.02;86.22
59877;BME280;45749;51.140;17.184;2023-02-28T00:12:56;101514.72;;;0.03;85.99
59877;BME280;45749;51.140;17.184;2023-02-28T00:15:24;101515.59;;;0.02;86.00
59877;BME280;45749;51.140;17.184;2023-02-28T00:17:51;101519.03;;;0.02;85.95
59877;BME280;45749;51.140;17.184;2023-02-28T00:20:17;101510.38;;;0.03;85.86
59877;BME280;45749;51.140;17.184;2023-02-28T00:22:45;101511.25;;;0.02;85.72
59877;BME280;45749;51.140;17.184;2023-02-28T00:25:13;101511.25;;;0.02;85.85
59877;BME280;45749;51.140;17.184;2023-02-28T00:27:39;101516.44;;;0.04;85.97
59877;BME280;45749;51.140;17.184;2023-02-28T00:30:09;101510.38;;;0.05;85.73
59877;BME280;45749;51.140;17.184;2023-02-28T00:32:35;101516.41;;;0.07;86.00
59877;BME280;45749;51.140;17.184;2023-02-28T00:35:01;101510.34;;;0.06;85.82
59877;BME280;45749;51.140;17.184;2023-02-28T00:37:27;101512.06;;;0.09;85.94
59877;BME280;45749;51.140;17.184;2023-02-28T00:39:52;101513.78;;;0.08;86.03
59877;BME280;45749;51.140;17.184;2023-02-28T00:42:18;101509.47;;;0.09;85.24
59877;BME280;45749;51.140;17.184;2023-02-28T00:44:43;101506.88;;;0.06;85.44
59877;BME280;45749;51.140;17.184;2023-02-28T00:47:08;101501.69;;;0.07;85.91
59877;BME280;45749;51.140;17.184;2023-02-28T00:49:34;101499.09;;;0.06;86.07
59877;BME280;45749;51.140;17.184;2023-02-28T00:52:00;101501.66;;;0.09;85.71
59877;BME280;45749;51.140;17.184;2023-02-28T00:54:25;101502.53;;;0.09;85.60
59877;BME280;45749;51.140;17.184;2023-02-28T00:56:51;101505.13;;;0.09;85.91
59877;BME280;45749;51.140;17.184;2023-02-28T00:59:17;101498.25;;;0.07;85.70
59877;BME280;45749;51.140;17.184;2023-02-28T01:01:44;101499.09;;;0.07;85.72
59877;BME280;45749;51.140;17.184;2023-02-28T01:04:11;101499.97;;;0.06;85.10
59877;BME280;45749;51.140;17.184;2023-02-28T01:06:37;101502.59;;;0.05;84.83
59877;BME280;45749;51.140;17.184;2023-02-28T01:09:04;101501.69;;;0.06;85.33
59877;BME280;45749;51.140;17.184;2023-02-28T01:11:30;101499.97;;;0.08;85.52
59877;BME280;45749;51.140;17.184;2023-02-28T01:13:56;101497.38;;;0.08;85.36
59877;BME280;45749;51.140;17.184;2023-02-28T01:16:21;101502.56;;;0.08;85.39
59877;BME280;45749;51.140;17.184;2023-02-28T01:18:47;101493.91;;;0.07;85.23
59877;BME280;45749;51.140;17.184;2023-02-28T01:21:15;101493.06;;;0.05;85.70
59877;BME280;45749;51.140;17.184;2023-02-28T01:23:42;101493.06;;;0.07;85.64
59877;BME280;45749;51.140;17.184;2023-02-28T01:26:10;101494.78;;;0.08;85.69
59877;BME280;45749;51.140;17.184;2023-02-28T01:28:37;101495.66;;;0.07;85.63
59877;BME280;45749;51.140;17.184;2023-02-28T01:31:02;101493.94;;;0.04;85.85
59877;BME280;45749;51.140;17.184;2023-02-28T01:33:28;101495.66;;;0.07;85.91
59877;BME280;45749;51.140;17.184;2023-02-28T01:36:02;101496.50;;;0.06;86.02
59877;BME280;45749;51.140;17.184;2023-02-28T01:38:29;101493.09;;;0.02;86.16
59877;BME280;45749;51.140;17.184;2023-02-28T01:40:54;101497.38;;;0.06;86.27
59877;BME280;45749;51.140;17.184;2023-02-28T01:43:28;101485.28;;;0.07;86.32
59877;BME280;45749;51.140;17.184;2023-02-28T01:45:55;101488.72;;;0.06;85.90
59877;BME280;45749;51.140;17.184;2023-02-28T01:48:26;101492.19;;;0.03;86.15
59877;BME280;45749;51.140;17.184;2023-02-28T01:50:54;101497.41;;;0.05;86.31
59877;BME280;45749;51.140;17.184;2023-02-28T01:53:32;101488.72;;;0.06;86.02
59877;BME280;45749;51.140;17.184;2023-02-28T01:55:59;101493.91;;;0.06;85.96
59877;BME280;45749;51.140;17.184;2023-02-28T01:58:25;101496.50;;;0.06;86.32
59877;BME280;45749;51.140;17.184;2023-02-28T02:00:50;101486.97;;;0.06;86.08
59877;BME280;45749;51.140;17.184;2023-02-28T02:03:18;101491.31;;;0.06;86.44
59877;BME280;45749;51.140;17.184;2023-02-28T02:05:45;101496.50;;;0.07;86.33
59877;BME280;45749;51.140;17.184;2023-02-28T02:08:21;101493.91;;;0.06;86.20
59877;BME280;45749;51.140;17.184;2023-02-28T02:10:57;101490.47;;;0.05;86.51
59877;BME280;45749;51.140;17.184;2023-02-28T02:18:59;101490.50;;;0.04;86.46
59877;BME280;45749;51.140;17.184;2023-02-28T02:21:47;101495.66;;;0.05;86.46
59877;BME280;45749;51.140;17.184;2023-02-28T02:27:24;101490.50;;;0.02;86.31
59877;BME280;45749;51.140;17.184;2023-02-28T02:33:14;101493.97;;;0.01;86.58
59877;BME280;45749;51.140;17.184;2023-02-28T02:35:48;101488.78;;;-0.01;86.81
59877;BME280;45749;51.140;17.184;2023-02-28T02:41:08;101485.34;;;-0.01;86.52
59877;BME280;45749;51.140;17.184;2023-02-28T02:43:48;101482.75;;;-0.01;86.88
59877;BME280;45749;51.140;17.184;2023-02-28T02:46:37;101486.19;;;0.01;87.02
59877;BME280;45749;51.140;17.184;2023-02-28T02:49:06;101489.66;;;0.00;86.51
59877;BME280;45749;51.140;17.184;2023-02-28T02:51:34;101481.00;;;-0.01;86.76
59877;BME280;45749;51.140;17.184;2023-02-28T02:54:27;101483.59;;;-0.01;86.86
59877;BME280;45749;51.140;17.184;2023-02-28T02:56:56;101480.19;;;-0.03;87.11
59877;BME280;45749;51.140;17.184;2023-02-28T02:59:23;101483.63;;;-0.02;86.87
59877;BME280;45749;51.140;17.184;2023-02-28T03:01:53;101487.97;;;-0.04;86.93
59877;BME280;45749;51.140;17.184;2023-02-28T03:04:23;101484.50;;;-0.05;86.88
59877;BME280;45749;51.140;17.184;2023-02-28T03:06:51;101486.22;;;-0.04;86.71
59877;BME280;45749;51.140;17.184;2023-02-28T03:09:24;101487.09;;;-0.05;87.05
59877;BME280;45749;51.140;17.184;2023-02-28T03:11:52;101487.97;;;-0.04;86.83
59877;BME280;45749;51.140;17.184;2023-02-28T03:28:05;101489.75;;;-0.09;86.84
59877;BME280;45749;51.140;17.184;2023-02-28T03:30:48;101493.22;;;-0.09;86.84
59877;BME280;45749;51.140;17.184;2023-02-28T03:33:23;101497.50;;;-0.08;86.70
59877;BME280;45749;51.140;17.184;2023-02-28T03:35:59;101497.50;;;-0.08;86.77
59877;BME280;45749;51.140;17.184;2023-02-28T03:41:00;101500.16;;;-0.12;86.57
59877;BME280;45749;51.140;17.184;2023-02-28T03:43:32;101507.09;;;-0.14;86.45
59877;BME280;45749;51.140;17.184;2023-02-28T03:46:02;101508.84;;;-0.15;86.67
59877;BME280;45749;51.140;17.184;2023-02-28T03:51:03;101507.97;;;-0.15;86.81
59877;BME280;45749;51.140;17.184;2023-02-28T03:53:35;101505.38;;;-0.15;86.81
59877;BME280;45749;51.140;17.184;2023-02-28T03:56:18;101512.31;;;-0.17;86.61
59877;BME280;45749;51.140;17.184;2023-02-28T03:58:55;101505.41;;;-0.18;86.37
59877;BME280;45749;51.140;17.184;2023-02-28T04:01:43;101508.88;;;-0.19;86.71
59877;BME280;45749;51.140;17.184;2023-02-28T04:04:10;101508.88;;;-0.21;86.27
59877;BME280;45749;51.140;17.184;2023-02-28T04:06:36;101511.47;;;-0.21;86.35
59877;BME280;45749;51.140;17.184;2023-02-28T04:09:03;101509.78;;;-0.22;86.56
59877;BME280;45749;51.140;17.184;2023-02-28T04:11:32;101509.78;;;-0.22;86.57
59877;BME280;45749;51.140;17.184;2023-02-28T04:14:00;101513.22;;;-0.21;86.98
59877;BME280;45749;51.140;17.184;2023-02-28T04:16:25;101516.66;;;-0.21;87.07
59877;BME280;45749;51.140;17.184;2023-02-28T04:18:50;101514.94;;;-0.19;86.81
59877;BME280;45749;51.140;17.184;2023-02-28T04:21:16;101519.25;;;-0.16;86.67
59877;BME280;45749;51.140;17.184;2023-02-28T04:23:45;101527.88;;;-0.16;86.81
59877;BME280;45749;51.140;17.184;2023-02-28T04:26:11;101516.66;;;-0.16;86.69
59877;BME280;45749;51.140;17.184;2023-02-28T04:28:37;101520.09;;;-0.16;86.27
59877;BME280;45749;51.140;17.184;2023-02-28T04:31:04;101527.03;;;-0.16;86.86
59877;BME280;45749;51.140;17.184;2023-02-28T04:33:32;101517.53;;;-0.24;86.36
59877;BME280;45749;51.140;17.184;2023-02-28T04:36:02;101529.63;;;-0.19;86.38
59877;BME280;45749;51.140;17.184;2023-02-28T04:38:32;101528.75;;;-0.20;86.98
59877;BME280;45749;51.140;17.184;2023-02-28T04:40:59;101526.16;;;-0.20;86.65
59877;BME280;45749;51.140;17.184;2023-02-28T04:43:28;101532.28;;;-0.27;86.40
59877;BME280;45749;51.140;17.184;2023-02-28T04:45:55;101528.84;;;-0.26;87.02
59877;BME280;45749;51.140;17.184;2023-02-28T04:48:24;101533.13;;;-0.24;86.85
59877;BME280;45749;51.140;17.184;2023-02-28T04:50:50;101520.16;;;-0.27;86.86
59877;BME280;45749;51.140;17.184;2023-02-28T04:53:16;101528.84;;;-0.26;86.79
59877;BME280;45749;51.140;17.184;2023-02-28T04:55:42;101531.41;;;-0.25;87.28
59877;BME280;45749;51.140;17.184;2023-02-28T04:58:07;101537.44;;;-0.22;87.30
59877;BME280;45749;51.140;17.184;2023-02-28T05:00:33;101529.66;;;-0.22;86.99
59877;BME280;45749;51.140;17.184;2023-02-28T05:02:58;101527.91;;;-0.20;87.02
59877;BME280;45749;51.140;17.184;2023-02-28T05:05:23;101528.72;;;-0.17;86.81
59877;BME280;45749;51.140;17.184;2023-02-28T05:07:49;101533.91;;;-0.17;86.90
59877;BME280;45749;51.140;17.184;2023-02-28T05:10:14;101533.09;;;-0.19;87.00
59877;BME280;45749;51.140;17.184;2023-02-28T05:12:40;101527.06;;;-0.22;86.11
59877;BME280;45749;51.140;17.184;2023-02-28T05:15:05;101533.13;;;-0.27;86.34
59877;BME280;45749;51.140;17.184;2023-02-28T05:17:31;101533.13;;;-0.24;86.71
59877;BME280;45749;51.140;17.184;2023-02-28T05:19:56;101546.09;;;-0.22;86.64
59877;BME280;45749;51.140;17.184;2023-02-28T05:22:22;101537.41;;;-0.21;86.56
59877;BME280;45749;51.140;17.184;2023-02-28T05:24:48;101537.41;;;-0.21;86.69
59877;BME280;45749;51.140;17.184;2023-02-28T05:27:13;101540.88;;;-0.20;86.71
59877;BME280;45749;51.140;17.184;2023-02-28T05:29:38;101540.91;;;-0.22;86.85
59877;BME280;45749;51.140;17.184;2023-02-28T05:32:11;101543.53;;;-0.25;86.49
59877;BME280;45749;51.140;17.184;2023-02-28T05:34:40;101550.41;;;-0.24;86.42
59877;BME280;45749;51.140;17.184;2023-02-28T05:37:11;101550.41;;;-0.24;87.05
59877;BME280;45749;51.140;17.184;2023-02-28T05:39:37;101557.34;;;-0.25;87.16
59877;BME280;45749;51.140;17.184;2023-02-28T05:42:04;101559.06;;;-0.24;86.87
59877;BME280;45749;51.140;17.184;2023-02-28T05:44:29;101553.88;;;-0.27;86.61
59877;BME280;45749;51.140;17.184;2023-02-28T05:46:55;101556.50;;;-0.25;86.58
59877;BME280;45749;51.140;17.184;2023-02-28T05:49:20;101564.25;;;-0.24;87.02
59877;BME280;45749;51.140;17.184;2023-02-28T05:51:45;101564.25;;;-0.24;87.09
59877;BME280;45749;51.140;17.184;2023-02-28T05:54:11;101575.50;;;-0.23;87.29
59877;BME280;45749;51.140;17.184;2023-02-28T05:56:36;101573.75;;;-0.21;87.25
59877;BME280;45749;51.140;17.184;2023-02-28T05:59:04;101568.56;;;-0.21;87.49
59877;BME280;45749;51.140;17.184;2023-02-28T06:01:34;101571.16;;;-0.19;87.37
59877;BME280;45749;51.140;17.184;2023-02-28T06:04:01;101572.00;;;-0.19;87.32
59877;BME280;45749;51.140;17.184;2023-02-28T06:06:27;101578.88;;;-0.15;87.16
59877;BME280;45749;51.140;17.184;2023-02-28T06:08:53;101584.03;;;-0.13;86.89
59877;BME280;45749;51.140;17.184;2023-02-28T06:11:19;101578.88;;;-0.15;87.05
59877;BME280;45749;51.140;17.184;2023-02-28T06:13:45;101585.78;;;-0.12;87.46
59877;BME280;45749;51.140;17.184;2023-02-28T06:16:11;101581.44;;;-0.13;87.47
59877;BME280;45749;51.140;17.184;2023-02-28T06:18:37;101585.78;;;-0.12;87.10
59877;BME280;45749;51.140;17.184;2023-02-28T06:21:03;101588.38;;;-0.12;87.01
59877;BME280;45749;51.140;17.184;2023-02-28T06:23:28;101590.13;;;-0.13;86.90
59877;BME280;45749;51.140;17.184;2023-02-28T06:25:53;101589.25;;;-0.12;86.70
59877;BME280;45749;51.140;17.184;2023-02-28T06:28:22;101592.69;;;-0.10;86.52
59877;BME280;45749;51.140;17.184;2023-02-28T06:30:48;101598.75;;;-0.09;86.93
59877;BME280;45749;51.140;17.184;2023-02-28T06:33:13;101600.50;;;-0.13;86.86
59877;BME280;45749;51.140;17.184;2023-02-28T06:35:39;101597.06;;;-0.18;86.35
59877;BME280;45749;51.140;17.184;2023-02-28T06:38:04;101606.59;;;-0.20;86.66
59877;BME280;45749;51.140;17.184;2023-02-28T06:40:29;101608.34;;;-0.22;86.62
59877;BME280;45749;51.140;17.184;2023-02-28T06:42:59;101603.19;;;-0.25;85.67
59877;BME280;45749;51.140;17.184;2023-02-28T06:45:24;101601.47;;;-0.28;86.29
59877;BME280;45749;51.140;17.184;2023-02-28T06:47:51;101607.53;;;-0.30;86.54
59877;BME280;45749;51.140;17.184;2023-02-28T06:50:17;101611.88;;;-0.29;86.53
59877;BME280;45749;51.140;17.184;2023-02-28T06:52:44;101617.91;;;-0.29;86.99
59877;BME280;45749;51.140;17.184;2023-02-28T06:55:10;101607.53;;;-0.30;86.67
59877;BME280;45749;51.140;17.184;2023-02-28T06:57:36;101615.31;;;-0.29;86.36
59877;BME280;45749;51.140;17.184;2023-02-28T07:00:06;101605.78;;;-0.30;85.95
59877;BME280;45749;51.140;17.184;2023-02-28T07:02:33;101609.28;;;-0.31;85.96
59877;BME280;45749;51.140;17.184;2023-02-28T07:04:59;101609.28;;;-0.32;85.39
59877;BME280;45749;51.140;17.184;2023-02-28T07:07:24;101611.00;;;-0.31;86.17
59877;BME280;45749;51.140;17.184;2023-02-28T07:09:50;101609.28;;;-0.31;86.31
59877;BME280;45749;51.140;17.184;2023-02-28T07:12:15;101615.28;;;-0.27;85.32
59877;BME280;45749;51.140;17.184;2023-02-28T07:14:41;101611.84;;;-0.28;83.68
59877;BME280;45749;51.140;17.184;2023-02-28T07:17:07;101615.28;;;-0.24;82.67
59877;BME280;45749;51.140;17.184;2023-02-28T07:19:33;101623.06;;;-0.22;82.05
59877;BME280;45749;51.140;17.184;2023-02-28T07:21:58;101614.44;;;-0.28;81.57
59877;BME280;45749;51.140;17.184;2023-02-28T07:24:24;101620.47;;;-0.27;82.79
59877;BME280;45749;51.140;17.184;2023-02-28T07:26:53;101616.16;;;-0.27;82.30
59877;BME280;45749;51.140;17.184;2023-02-28T07:29:18;101619.63;;;-0.26;82.15
59877;BME280;45749;51.140;17.184;2023-02-28T07:31:44;101621.31;;;-0.24;81.83
59877;BME280;45749;51.140;17.184;2023-02-28T07:34:09;101616.16;;;-0.27;80.38
59877;BME280;45749;51.140;17.184;2023-02-28T07:36:35;101615.28;;;-0.22;80.83
59877;BME280;45749;51.140;17.184;2023-02-28T07:39:00;101624.78;;;-0.21;80.93
59877;BME280;45749;51.140;17.184;2023-02-28T07:41:25;101625.63;;;-0.21;79.90
59877;BME280;45749;51.140;17.184;2023-02-28T07:43:55;101630.81;;;-0.21;79.87
59877;BME280;45749;51.140;17.184;2023-02-28T07:46:22;101629.97;;;-0.21;79.80
59877;BME280;45749;51.140;17.184;2023-02-28T07:48:48;101636.00;;;-0.19;79.44
59877;BME280;45749;51.140;17.184;2023-02-28T07:51:13;101629.94;;;-0.20;79.59
59877;BME280;45749;51.140;17.184;2023-02-28T07:53:39;101626.47;;;-0.20;78.83
59877;BME280;45749;51.140;17.184;2023-02-28T07:56:05;101636.84;;;-0.17;79.01
59877;BME280;45749;51.140;17.184;2023-02-28T07:58:31;101628.19;;;-0.18;79.31
59877;BME280;45749;51.140;17.184;2023-02-28T08:00:57;101628.19;;;-0.15;78.07
59877;BME280;45749;51.140;17.184;2023-02-28T08:03:29;101623.88;;;-0.16;78.04
59877;BME280;45749;51.140;17.184;2023-02-28T08:05:55;101632.50;;;-0.14;77.46
59877;BME280;45749;51.140;17.184;2023-02-28T08:08:20;101629.03;;;-0.14;78.39
59877;BME280;45749;51.140;17.184;2023-02-28T08:10:45;101626.41;;;-0.11;78.68
59877;BME280;45749;51.140;17.184;2023-02-28T08:13:11;101623.78;;;-0.07;78.85
59877;BME280;45749;51.140;17.184;2023-02-28T08:15:36;101628.06;;;-0.01;78.50
59877;BME280;45749;51.140;17.184;2023-02-28T08:18:02;101630.63;;;0.02;78.67
59877;BME280;45749;51.140;17.184;2023-02-28T08:20:27;101622.00;;;0.02;78.34
59877;BME280;45749;51.140;17.184;2023-02-28T08:22:53;101631.47;;;0.07;77.76
59877;BME280;45749;51.140;17.184;2023-02-28T08:25:19;101631.44;;;0.10;78.33
59877;BME280;45749;51.140;17.184;2023-02-28T08:27:44;101629.66;;;0.17;77.72
59877;BME280;45749;51.140;17.184;2023-02-28T08:30:11;101628.75;;;0.21;77.23
59877;BME280;45749;51.140;17.184;2023-02-28T08:32:37;101623.53;;;0.24;76.96
59877;BME280;45749;51.140;17.184;2023-02-28T08:35:02;101622.63;;;0.30;76.92
59877;BME280;45749;51.140;17.184;2023-02-28T08:37:28;101620.78;;;0.38;76.40
59877;BME280;45749;51.140;17.184;2023-02-28T08:39:54;101624.25;;;0.38;76.17
59877;BME280;45749;51.140;17.184;2023-02-28T08:42:19;101628.59;;;0.38;76.48
59877;BME280;45749;51.140;17.184;2023-02-28T08:44:45;101629.41;;;0.43;77.02
59877;BME280;45749;51.140;17.184;2023-02-28T08:47:10;101626.72;;;0.51;77.25
59877;BME280;45749;51.140;17.184;2023-02-28T08:49:37;101624.97;;;0.54;76.78
59877;BME280;45749;51.140;17.184;2023-02-28T08:52:03;101630.97;;;0.59;77.84
59877;BME280;45749;51.140;17.184;2023-02-28T08:54:28;101631.72;;;0.70;78.47
59877;BME280;45749;51.140;17.184;2023-02-28T08:56:56;101628.09;;;0.82;77.87
59877;BME280;45749;51.140;17.184;2023-02-28T08:59:21;101628.06;;;0.85;76.60
59877;BME280;45749;51.140;17.184;2023-02-28T09:01:47;101633.25;;;0.85;74.48
59877;BME280;45749;51.140;17.184;2023-02-28T09:04:12;101636.75;;;0.84;75.17
59877;BME280;45749;51.140;17.184;2023-02-28T09:06:38;101632.41;;;0.85;74.29
59877;BME280;45749;51.140;17.184;2023-02-28T09:09:04;101622.03;;;0.82;74.06
59877;BME280;45749;51.140;17.184;2023-02-28T09:11:31;101628.94;;;0.86;75.04
59877;BME280;45749;51.140;17.184;2023-02-28T09:13:58;101627.09;;;0.96;75.05
59877;BME280;45749;51.140;17.184;2023-02-28T09:16:25;101616.63;;;1.00;74.36
59877;BME280;45749;51.140;17.184;2023-02-28T09:18:50;101618.31;;;1.06;74.95
59877;BME280;45749;51.140;17.184;2023-02-28T09:21:18;101619.06;;;1.14;74.60
59877;BME280;45749;51.140;17.184;2023-02-28T09:23:46;101615.50;;;1.21;74.73
59877;BME280;45749;51.140;17.184;2023-02-28T09:26:20;101617.16;;;1.27;74.44
59877;BME280;45749;51.140;17.184;2023-02-28T09:28:45;101611.81;;;1.37;75.79
59877;BME280;45749;51.140;17.184;2023-02-28T09:31:16;101607.28;;;1.52;75.87
59877;BME280;45749;51.140;17.184;2023-02-28T09:33:46;101607.03;;;1.69;76.35
59877;BME280;45749;51.140;17.184;2023-02-28T09:36:12;101607.53;;;1.91;76.67
59877;BME280;45749;51.140;17.184;2023-02-28T09:38:37;101600.25;;;2.11;77.40
59877;BME280;45749;51.140;17.184;2023-02-28T09:41:11;101601.81;;;2.21;74.92
59877;BME280;45749;51.140;17.184;2023-02-28T09:43:41;101603.38;;;2.30;74.86
59877;BME280;45749;51.140;17.184;2023-02-28T09:46:18;101592.78;;;2.41;74.90
59877;BME280;45749;51.140;17.184;2023-02-28T09:48:48;101596.94;;;2.49;74.11
59877;BME280;45749;51.140;17.184;2023-02-28T09:51:36;101599.25;;;2.65;74.05
59877;BME280;45749;51.140;17.184;2023-02-28T09:54:04;101596.44;;;2.77;73.62
59877;BME280;45749;51.140;17.184;2023-02-28T09:56:38;101596.94;;;2.93;74.89
59877;BME280;45749;51.140;17.184;2023-02-28T10:04:49;101609.06;;;2.97;71.73
59877;BME280;45749;51.140;17.184;2023-02-28T10:09:51;101618.53;;;3.01;71.64
59877;BME280;45749;51.140;17.184;2023-02-28T10:12:18;101620.91;;;3.12;72.19
59877;BME280;45749;51.140;17.184;2023-02-28T10:14:47;101619.06;;;3.17;71.39
59877;BME280;45749;51.140;17.184;2023-02-28T10:17:19;101620.03;;;3.11;69.71
59877;BME280;45749;51.140;17.184;2023-02-28T10:25:18;101610.88;;;3.34;70.45
59877;BME280;45749;51.140;17.184;2023-02-28T10:27:43;101599.59;;;3.32;71.40
59877;BME280;45749;51.140;17.184;2023-02-28T10:30:11;101598.41;;;3.45;73.33
59877;BME280;45749;51.140;17.184;2023-02-28T10:32:38;101603.19;;;3.65;72.29
59877;BME280;45749;51.140;17.184;2023-02-28T10:37:30;101608.19;;;3.74;69.75
59877;BME280;45749;51.140;17.184;2023-02-28T10:39:57;101608.97;;;3.78;70.83
59877;BME280;45749;51.140;17.184;2023-02-28T10:42:29;101612.19;;;3.89;70.58
59877;BME280;45749;51.140;17.184;2023-02-28T10:45:15;101610.41;;;3.91;70.48
59877;BME280;45749;51.140;17.184;2023-02-28T10:48:25;101604.25;;;3.93;69.61
59877;BME280;45749;51.140;17.184;2023-02-28T10:50:53;101606.84;;;3.95;70.77
59877;BME280;45749;51.140;17.184;2023-02-28T10:58:45;101597.59;;;4.16;70.38
59877;BME280;45749;51.140;17.184;2023-02-28T11:01:24;101592.16;;;4.23;68.15
59877;BME280;45749;51.140;17.184;2023-02-28T11:03:53;101590.38;;;4.26;68.92
59877;BME280;45749;51.140;17.184;2023-02-28T11:06:30;101590.16;;;4.33;67.81
59877;BME280;45749;51.140;17.184;2023-02-28T11:08:59;101592.78;;;4.33;68.06
59877;BME280;45749;51.140;17.184;2023-02-28T11:11:29;101581.63;;;4.27;68.75
59877;BME280;45749;51.140;17.184;2023-02-28T11:14:03;101587.84;;;4.22;68.34
59877;BME280;45749;51.140;17.184;2023-02-28T11:16:37;101584.13;;;4.31;68.68
59877;BME280;45749;51.140;17.184;2023-02-28T11:19:06;101583.84;;;4.42;69.17
59877;BME280;45749;51.140;17.184;2023-02-28T11:21:50;101586.97;;;4.55;67.83
59877;BME280;45749;51.140;17.184;2023-02-28T11:24:35;101571.13;;;4.61;68.05
59877;BME280;45749;51.140;17.184;2023-02-28T11:27:02;101577.75;;;4.73;68.35
59877;BME280;45749;51.140;17.184;2023-02-28T11:29:33;101575.81;;;4.79;67.39
59877;BME280;45749;51.140;17.184;2023-02-28T11:32:12;101576.63;;;4.81;68.14
59877;BME280;45749;51.140;17.184;2023-02-28T11:34:42;101576.66;;;4.80;67.67
59877;BME280;45749;51.140;17.184;2023-02-28T11:37:16;101568.81;;;4.80;68.96
59877;BME280;45749;51.140;17.184;2023-02-28T11:39:43;101574.22;;;5.03;69.59
59877;BME280;45749;51.140;17.184;2023-02-28T11:42:34;101575.41;;;5.23;68.35
59877;BME280;45749;51.140;17.184;2023-02-28T11:50:39;101574.69;;;5.17;65.82
59877;BME280;45749;51.140;17.184;2023-02-28T11:55:45;101561.38;;;4.97;66.37
59877;BME280;45749;51.140;17.184;2023-02-28T12:06:57;101553.50;;;5.25;66.45
59877;BME280;45749;51.140;17.184;2023-02-28T12:09:36;101555.84;;;5.34;66.14
59877;BME280;45749;51.140;17.184;2023-02-28T12:12:30;101547.75;;;5.42;66.48
59877;BME280;45749;51.140;17.184;2023-02-28T12:17:36;101535.88;;;5.58;66.23
59877;BME280;45749;51.140;17.184;2023-02-28T12:22:42;101531.31;;;5.65;65.18
59877;BME280;45749;51.140;17.184;2023-02-28T12:27:40;101537.16;;;5.73;65.61
59877;BME280;45749;51.140;17.184;2023-02-28T12:35:33;101523.91;;;5.78;64.37
59877;BME280;45749;51.140;17.184;2023-02-28T12:38:12;101524.72;;;5.80;65.00
59877;BME280;45749;51.140;17.184;2023-02-28T12:40:53;101521.44;;;5.73;64.49
59877;BME280;45749;51.140;17.184;2023-02-28T12:43:20;101523.06;;;5.76;63.77
59877;BME280;45749;51.140;17.184;2023-02-28T12:48:21;101506.72;;;5.69;64.59
59877;BME280;45749;51.140;17.184;2023-02-28T12:50:49;101516.34;;;5.69;63.79
59877;BME280;45749;51.140;17.184;2023-02-28T12:56:15;101509.50;;;5.64;62.93
59877;BME280;45749;51.140;17.184;2023-02-28T12:58:46;101505.31;;;5.59;63.85
59877;BME280;45749;51.140;17.184;2023-02-28T13:01:36;101507.16;;;5.57;63.49
59877;BME280;45749;51.140;17.184;2023-02-28T13:04:42;101513.16;;;5.59;63.55
59877;BME280;45749;51.140;17.184;2023-02-28T13:07:18;101512.28;;;5.60;63.74
59877;BME280;45749;51.140;17.184;2023-02-28T13:09:59;101508.75;;;5.61;63.28
59877;BME280;45749;51.140;17.184;2023-02-28T13:12:26;101511.44;;;5.59;62.00
59877;BME280;45749;51.140;17.184;2023-02-28T13:15:07;101506.28;;;5.56;62.96
59877;BME280;45749;51.140;17.184;2023-02-28T13:17:39;101513.22;;;5.57;63.27
59877;BME280;45749;51.140;17.184;2023-02-28T13:20:15;101506.94;;;5.63;62.68
59877;BME280;45749;51.140;17.184;2023-02-28T13:22:46;101501.53;;;5.68;63.71
59877;BME280;45749;51.140;17.184;2023-02-28T13:27:48;101507.34;;;5.76;62.94
59877;BME280;45749;51.140;17.184;2023-02-28T13:33:35;101505.56;;;5.78;62.54
59877;BME280;45749;51.140;17.184;2023-02-28T13:38:41;101503.00;;;5.76;62.36
59877;BME280;45749;51.140;17.184;2023-02-28T13:46:38;101500.25;;;5.54;62.53
59877;BME280;45749;51.140;17.184;2023-02-28T13:49:27;101497.56;;;5.56;61.98
59877;BME280;45749;51.140;17.184;2023-02-28T14:05:22;101471.69;;;5.73;62.51
59877;BME280;45749;51.140;17.184;2023-02-28T14:07:56;101469.72;;;5.80;62.83
59877;BME280;45749;51.140;17.184;2023-02-28T14:10:26;101469.63;;;5.81;62.34
59877;BME280;45749;51.140;17.184;2023-02-28T14:13:11;101475.72;;;5.82;62.55
59877;BME280;45749;51.140;17.184;2023-02-28T14:18:19;101463.53;;;5.81;61.52
59877;BME280;45749;51.140;17.184;2023-02-28T14:20:47;101451.47;;;5.77;61.27
59877;BME280;45749;51.140;17.184;2023-02-28T14:23:46;101462.19;;;5.69;61.73
59877;BME280;45749;51.140;17.184;2023-02-28T14:29:26;101457.88;;;5.68;61.70
59877;BME280;45749;51.140;17.184;2023-02-28T14:34:37;101459.53;;;5.71;61.32
59877;BME280;45749;51.140;17.184;2023-02-28T14:37:09;101463.09;;;5.68;61.87
59877;BME280;45749;51.140;17.184;2023-02-28T14:39:36;101452.59;;;5.70;61.75
59877;BME280;45749;51.140;17.184;2023-02-28T14:42:27;101461.34;;;5.69;61.11
59877;BME280;45749;51.140;17.184;2023-02-28T14:44:55;101445.72;;;5.65;61.35
59877;BME280;45749;51.140;17.184;2023-02-28T14:47:29;101450.19;;;5.63;61.58
59877;BME280;45749;51.140;17.184;2023-02-28T14:49:57;101441.59;;;5.60;61.16
59877;BME280;45749;51.140;17.184;2023-02-28T14:52:28;101445.06;;;5.60;61.58
59877;BME280;45749;51.140;17.184;2023-02-28T14:55:05;101446.16;;;5.53;61.44
59877;BME280;45749;51.140;17.184;2023-02-28T14:57:38;101455.00;;;5.49;61.26
59877;BME280;45749;51.140;17.184;2023-02-28T15:02:39;101451.84;;;5.39;61.28
59877;BME280;45749;51.140;17.184;2023-02-28T15:05:18;101454.47;;;5.39;61.74